Latest Weather Observations for Busselton Jetty

IDW60801

Issued at 7:05 pm WST Friday 31 October 2014 (issued every 30 minutes, with the page automatically refreshed every 10 minutes)

About weather observations | Map of weather stations | Latest weather observations for WA | Other Formats
Station Details ID: 009937 Name: BUSSELTON JETTY Lat: -33.63 Lon: 115.34 Height: 3.0 m
Data from the previous 72 hours. | See also: Recent months for locations in Western Australia
Date/Time
WST
Temp
°C
App
Temp
°C
Dew
Point
Rel
Hum
%
Delta-T
°C
Wind Press
QNH
hPa
Press
MSL
hPa
Rain
since 9 am
mm
Dir
 
Spd
km/h
Gust
km/h
Spd
kts
Gust
kts
31/07:00pm - - - - - SSW 26 32 14 17 - - -
31/06:30pm - - - - - SSW 28 35 15 19 - - -
31/06:00pm - - - - - SSW 32 39 17 21 - - -
31/05:30pm - - - - - SW 33 44 18 24 - - -
31/05:00pm - - - - - NW 24 28 13 15 - - -
31/04:30pm - - - - - NW 13 17 7 9 - - -
31/04:00pm - - - - - NW 20 26 11 14 - - -
31/03:30pm - - - - - NNW 24 30 13 16 - - -
31/03:00pm - - - - - SSW 9 13 5 7 - - -
31/02:30pm - - - - - S 17 22 9 12 - - -
31/02:00pm - - - - - SE 9 15 5 8 - - -
31/01:30pm - - - - - SE 19 26 10 14 - - -
31/01:00pm - - - - - SE 19 26 10 14 - - -
31/12:30pm - - - - - SSE 20 32 11 17 - - -
31/12:00pm - - - - - S 17 32 9 17 - - -
31/11:30am - - - - - S 20 24 11 13 - - -
31/11:00am - - - - - S 20 33 11 18 - - -
31/10:30am - - - - - S 15 24 8 13 - - -
31/10:00am - - - - - SSW 22 30 12 16 - - -
31/09:30am - - - - - S 24 32 13 17 - - -
31/09:00am - - - - - S 26 37 14 20 - - -
31/08:30am - - - - - SSW 19 26 10 14 - - -
31/08:00am - - - - - SSW 15 22 8 12 - - -
31/07:30am - - - - - SSW 15 20 8 11 - - -
31/07:00am - - - - - SSW 19 22 10 12 - - -
31/06:30am - - - - - SSW 15 19 8 10 - - -
31/06:00am - - - - - SSW 17 22 9 12 - - -
31/05:30am - - - - - SW 19 26 10 14 - - -
31/05:00am - - - - - WSW 20 26 11 14 - - -
31/04:30am - - - - - SW 17 22 9 12 - - -
31/04:00am - - - - - SW 20 24 11 13 - - -
31/03:30am - - - - - SW 20 26 11 14 - - -
31/03:00am - - - - - SW 26 32 14 17 - - -
31/02:30am - - - - - SSW 26 32 14 17 - - -
31/02:00am - - - - - SW 26 32 14 17 - - -
31/01:30am - - - - - SW 22 28 12 15 - - -
31/01:00am - - - - - SW 22 28 12 15 - - -
31/12:30am - - - - - SW 30 39 16 21 - - -
31/12:00am - - - - - WSW 28 32 15 17 - - -
 
Date/Time
WST
Temp
°C
App
Temp
°C
Dew
Point
Rel
Hum
%
Delta-T
°C
Wind Press
QNH
hPa
Press
MSL
hPa
Rain
since 9 am
mm
Dir
 
Spd
km/h
Gust
km/h
Spd
kts
Gust
kts
30/11:30pm - - - - - WNW 32 37 17 20 - - -
30/11:00pm - - - - - WNW 35 39 19 21 - - -
30/10:30pm - - - - - WNW 33 52 18 28 - - -
30/10:00pm - - - - - WNW 32 37 17 20 - - -
30/09:30pm - - - - - WNW 33 39 18 21 - - -
30/09:00pm - - - - - WNW 32 39 17 21 - - -
30/08:30pm - - - - - WNW 30 35 16 19 - - -
30/08:00pm - - - - - WNW 30 39 16 21 - - -
30/07:30pm - - - - - W 30 39 16 21 - - -
30/07:00pm - - - - - WNW 32 39 17 21 - - -
30/06:30pm - - - - - WNW 32 37 17 20 - - -
30/06:00pm - - - - - WNW 33 44 18 24 - - -
30/05:30pm - - - - - WNW 32 37 17 20 - - -
30/05:00pm - - - - - WNW 33 41 18 22 - - -
30/04:47pm - - - - - WNW 33 52 18 28 - - -
30/04:30pm - - - - - WNW 32 37 17 20 - - -
30/04:00pm - - - - - WNW 32 35 17 19 - - -
30/03:30pm - - - - - NW 28 32 15 17 - - -
30/03:00pm - - - - - WNW 33 39 18 21 - - -
30/02:30pm - - - - - WNW 32 37 17 20 - - -
30/02:00pm - - - - - WNW 37 44 20 24 - - -
30/01:30pm - - - - - NW 32 39 17 21 - - -
30/01:00pm - - - - - NW 32 37 17 20 - - -
30/12:30pm - - - - - NW 30 33 16 18 - - -
30/12:00pm - - - - - NW 24 30 13 16 - - -
30/11:30am - - - - - WNW 22 30 12 16 - - -
30/11:00am - - - - - WNW 20 28 11 15 - - -
30/10:30am - - - - - WNW 22 32 12 17 - - -
30/10:00am - - - - - WNW 17 20 9 11 - - -
30/09:30am - - - - - WNW 15 20 8 11 - - -
30/09:00am - - - - - W 17 19 9 10 - - -
30/08:30am - - - - - WSW 13 17 7 9 - - -
30/08:00am - - - - - SW 17 24 9 13 - - -
30/07:30am - - - - - SSW 13 17 7 9 - - -
30/07:00am - - - - - SSW 13 15 7 8 - - -
30/06:30am - - - - - SW 11 15 6 8 - - -
30/06:00am - - - - - SSW 9 13 5 7 - - -
30/05:30am - - - - - WSW 17 19 9 10 - - -
30/05:00am - - - - - SW 15 17 8 9 - - -
30/04:30am - - - - - SW 15 17 8 9 - - -
30/04:00am - - - - - SW 17 19 9 10 - - -
30/03:30am - - - - - SW 17 19 9 10 - - -
30/03:00am - - - - - SW 19 22 10 12 - - -
30/02:30am - - - - - SW 19 20 10 11 - - -
30/02:00am - - - - - WSW 17 19 9 10 - - -
30/01:30am - - - - - WSW 17 20 9 11 - - -
30/01:00am - - - - - WSW 20 24 11 13 - - -
30/12:30am - - - - - SW 15 17 8 9 - - -
30/12:00am - - - - - SW 17 19 9 10 - - -
 
Date/Time
WST
Temp
°C
App
Temp
°C
Dew
Point
Rel
Hum
%
Delta-T
°C
Wind Press
QNH
hPa
Press
MSL
hPa
Rain
since 9 am
mm
Dir
 
Spd
km/h
Gust
km/h
Spd
kts
Gust
kts
29/11:30pm - - - - - SSW 15 19 8 10 - - -
29/11:00pm - - - - - SSW 19 22 10 12 - - -
29/10:30pm - - - - - SW 22 26 12 14 - - -
29/10:00pm - - - - - SSW 26 30 14 16 - - -
29/09:30pm - - - - - SW 28 32 15 17 - - -
29/09:00pm - - - - - SSW 28 33 15 18 - - -
29/08:30pm - - - - - SSW 30 35 16 19 - - -
29/08:00pm - - - - - SSW 30 35 16 19 - - -
29/07:30pm - - - - - SSW 26 35 14 19 - - -
29/07:00pm - - - - - SSW 28 33 15 18 - - -
29/06:30pm - - - - - SW 32 35 17 19 - - -
29/06:00pm - - - - - SSW 28 35 15 19 - - -
29/05:30pm - - - - - SSW 33 39 18 21 - - -
29/05:00pm - - - - - SW 35 41 19 22 - - -
29/04:30pm - - - - - SW 37 46 20 25 - - -
29/04:00pm - - - - - SW 26 33 14 18 - - -
29/03:30pm - - - - - SW 19 26 10 14 - - -
29/03:00pm - - - - - SW 19 26 10 14 - - -
29/02:30pm - - - - - SSW 15 24 8 13 - - -
29/02:00pm - - - - - SSW 20 30 11 16 - - -
29/01:30pm - - - - - SSW 13 24 7 13 - - -
29/01:00pm - - - - - SSW 20 30 11 16 - - -
29/12:30pm - - - - - SSW 19 26 10 14 - - -
29/12:00pm - - - - - S 19 26 10 14 - - -
29/11:30am - - - - - SSW 26 33 14 18 - - -
29/11:00am - - - - - SSW 24 30 13 16 - - -
29/10:30am - - - - - SSW 28 37 15 20 - - -
29/10:00am - - - - - SSW 28 35 15 19 - - -
29/09:30am - - - - - SSW 30 33 16 18 - - -
29/09:00am - - - - - SSW 28 37 15 20 - - -
29/08:30am - - - - - S 28 35 15 19 - - -
29/08:00am - - - - - SSW 28 35 15 19 - - -
29/07:30am - - - - - SSW 24 32 13 17 - - -
29/07:00am - - - - - S 20 28 11 15 - - -
29/06:30am - - - - - SW 19 22 10 12 - - -
29/06:00am - - - - - SSW 15 17 8 9 - - -
29/05:30am - - - - - S 17 24 9 13 - - -
29/05:00am - - - - - S 19 26 10 14 - - -
29/04:30am - - - - - S 22 30 12 16 - - -
29/04:00am - - - - - S 17 22 9 12 - - -
29/03:30am - - - - - S 22 28 12 15 - - -
29/03:00am - - - - - S 19 26 10 14 - - -
29/02:30am - - - - - S 22 30 12 16 - - -
29/02:00am - - - - - S 26 33 14 18 - - -
29/01:30am - - - - - S 32 37 17 20 - - -
29/01:00am - - - - - S 28 35 15 19 - - -
29/12:30am - - - - - S 26 33 14 18 - - -
29/12:00am - - - - - SSE 20 28 11 15 - - -
 
Date/Time
WST
Temp
°C
App
Temp
°C
Dew
Point
Rel
Hum
%
Delta-T
°C
Wind Press
QNH
hPa
Press
MSL
hPa
Rain
since 9 am
mm
Dir
 
Spd
km/h
Gust
km/h
Spd
kts
Gust
kts
28/11:30pm - - - - - S 24 28 13 15 - - -
28/11:00pm - - - - - S 28 33 15 18 - - -
28/10:30pm - - - - - S 33 44 18 24 - - -
28/10:00pm - - - - - SSW 33 43 18 23 - - -
28/09:30pm - - - - - SSW 32 37 17 20 - - -
28/09:00pm - - - - - SSW 32 39 17 21 - - -
28/08:30pm - - - - - SSW 32 37 17 20 - - -
28/08:00pm - - - - - SSW 30 37 16 20 - - -
28/07:30pm - - - - - SSW 32 41 17 22 - - -

Other Formats:

Comma delimited format used in spreadsheet applications
http://www.bom.gov.au/fwo/IDW60801/IDW60801.95602.axf

JavaScript Object Notation format (JSON) in row-major order
http://www.bom.gov.au/fwo/IDW60801/IDW60801.95602.json